Terminal Aerodrome Forecast
Issued by NWS

Home | Current Version | Previous Version | Text Only | Print | Product List | Glossary On
Versions: 1 2 3 4 5 6 7 8 9 10 11 12 13 14 15 16
000
FTUS41 KPBZ 220542
TAFZZV
TAF
KZZV 220542Z 2206/2306 00000KT P6SM VCSH OVC080
      TEMPO 2210/2212 5SM BR
     FM221200 20005KT P6SM VCSH BKN025
     FM221800 19004KT P6SM BKN035
     FM230100 18005KT P6SM BKN010=

USA.gov is the U.S. government's official web portal to all federal, state and local government web resources and services.